createdAt,value
2017-06-09T00:01:05.346Z,12.1
2017-06-09T00:02:15.296Z,11.95
2017-06-09T00:03:25.560Z,12.03
2017-06-09T00:04:35.813Z,11.96
2017-06-09T00:05:46.075Z,12.05
2017-06-09T00:06:56.336Z,12.03
2017-06-09T00:08:06.594Z,11.99
2017-06-09T00:09:16.576Z,11.99
2017-06-09T00:10:26.851Z,12.03
2017-06-09T00:11:37.119Z,12.03
2017-06-09T00:12:47.383Z,12.12
2017-06-09T00:13:57.645Z,12.14
2017-06-09T00:15:07.913Z,12.18
2017-06-09T00:16:17.859Z,12.21
2017-06-09T00:17:28.134Z,12.15
2017-06-09T00:18:38.401Z,12.17
2017-06-09T00:19:48.347Z,12.15
2017-06-09T00:20:58.615Z,12.14
2017-06-09T00:22:08.565Z,12.25
2017-06-09T00:23:18.833Z,12.17
2017-06-09T00:24:29.099Z,12.2
2017-06-09T00:25:39.361Z,12.15
2017-06-09T00:26:49.621Z,12.15
2017-06-09T00:27:59.880Z,12.32
2017-06-09T00:29:09.827Z,12.21
2017-06-09T00:30:19.145Z,12.28
2017-06-09T00:31:29.407Z,12.18
2017-06-09T00:32:39.356Z,12.17
2017-06-09T00:33:49.618Z,12.21
2017-06-09T00:34:59.882Z,12.29
2017-06-09T00:36:10.145Z,12.29
2017-06-09T00:37:20.094Z,12.21
2017-06-09T00:38:30.352Z,12.21
2017-06-09T00:39:40.298Z,12.28
2017-06-09T00:40:50.563Z,12.26
2017-06-09T00:42:00.504Z,12.2
2017-06-09T00:43:10.449Z,12.29
2017-06-09T00:44:20.397Z,12.2
2017-06-09T00:45:30.660Z,12.17
2017-06-09T00:46:40.924Z,12.15
2017-06-09T00:47:51.184Z,12.2
2017-06-09T00:49:01.130Z,12.18
2017-06-09T00:50:11.386Z,12.23
2017-06-09T00:51:21.677Z,12.11
2017-06-09T00:52:31.934Z,12.14
2017-06-09T00:53:42.198Z,12.15
2017-06-09T00:54:52.148Z,12.18
2017-06-09T00:56:02.091Z,12.17
2017-06-09T00:57:12.351Z,12.15
2017-06-09T00:58:21.679Z,12.18
2017-06-09T00:59:31.628Z,12.15
2017-06-09T01:00:41.892Z,12.25
2017-06-09T01:01:52.157Z,12.26
2017-06-09T01:03:02.413Z,12.15
2017-06-09T01:04:12.674Z,12.23
2017-06-09T01:05:22.934Z,12.17
2017-06-09T01:06:33.205Z,12.26
2017-06-09T01:07:43.477Z,12.14
2017-06-09T01:08:53.742Z,12.23
2017-06-09T01:10:03.378Z,12.2
2017-06-09T01:11:13.334Z,12.17
2017-06-09T01:12:23.598Z,12.18
2017-06-09T01:13:33.857Z,12.21
2017-06-09T01:14:44.135Z,12.2
2017-06-09T01:15:54.398Z,12.23
2017-06-09T01:17:04.657Z,12.23
2017-06-09T01:18:14.919Z,12.23
2017-06-09T01:19:24.871Z,12.25
2017-06-09T01:20:35.131Z,12.18
2017-06-09T01:21:45.393Z,12.11
2017-06-09T01:22:55.339Z,12.25
2017-06-09T01:24:05.605Z,12.18
2017-06-09T01:25:15.554Z,12.17
2017-06-09T01:26:25.189Z,12.15
2017-06-09T01:27:35.451Z,12.11
2017-06-09T01:28:45.707Z,12.25
2017-06-09T01:29:55.967Z,12.15
2017-06-09T01:31:06.234Z,12.21
2017-06-09T01:32:16.503Z,12.11
2017-06-09T01:33:26.455Z,12.17
2017-06-09T01:34:36.090Z,12.17
2017-06-09T01:35:46.349Z,12.2
2017-06-09T01:36:56.612Z,12.15
2017-06-09T01:38:06.558Z,12.18
2017-06-09T01:39:16.500Z,12.1
2017-06-09T01:40:26.753Z,12.15
2017-06-09T01:41:36.703Z,12.08
2017-06-09T01:42:46.965Z,12.15
2017-06-09T01:43:57.225Z,12.11
2017-06-09T01:45:07.490Z,12.14
2017-06-09T01:46:17.437Z,12.11
2017-06-09T01:47:27.382Z,12.14
2017-06-09T01:48:37.333Z,12.12
2017-06-09T01:49:47.276Z,12
2017-06-09T01:50:57.221Z,12.03
2017-06-09T01:52:07.484Z,11.97
2017-06-09T01:53:17.466Z,12
2017-06-09T01:54:27.728Z,11.93
2017-06-09T01:55:37.996Z,12.02
2017-06-09T01:56:48.253Z,12
2017-06-09T01:57:58.518Z,12
2017-06-09T01:59:08.788Z,11.96
2017-06-09T02:00:19.051Z,12.03
2017-06-09T02:01:28.996Z,11.99
2017-06-09T02:02:39.270Z,11.97
2017-06-09T02:03:49.531Z,11.99
2017-06-09T02:04:59.797Z,11.93
2017-06-09T02:06:09.739Z,11.91
2017-06-09T02:07:19.692Z,11.93
2017-06-09T02:08:29.323Z,11.89
2017-06-09T02:09:39.268Z,11.88
2017-06-09T02:10:49.219Z,11.88
2017-06-09T02:11:59.479Z,11.81
2017-06-09T02:13:09.420Z,11.83
2017-06-09T02:14:19.365Z,11.77
2017-06-09T02:15:29.621Z,11.78
2017-06-09T02:16:39.873Z,11.77
2017-06-09T02:17:50.133Z,11.76
2017-06-09T02:18:59.762Z,11.7
2017-06-09T02:20:10.025Z,11.71
2017-06-09T02:21:19.977Z,11.8
2017-06-09T02:22:29.606Z,11.8
2017-06-09T02:23:39.875Z,11.78
2017-06-09T02:24:50.136Z,11.68
2017-06-09T02:26:00.399Z,11.77
2017-06-09T02:27:10.660Z,11.68
2017-06-09T02:28:20.288Z,11.7
2017-06-09T02:29:30.552Z,11.76
2017-06-09T02:30:40.814Z,11.74
2017-06-09T02:31:50.766Z,11.71
2017-06-09T02:33:01.026Z,11.6
2017-06-09T02:34:11.289Z,11.67
2017-06-09T02:35:21.237Z,11.63
2017-06-09T02:36:31.182Z,11.62
2017-06-09T02:37:41.447Z,11.65
2017-06-09T02:38:51.750Z,11.56
2017-06-09T02:40:02.011Z,11.58
2017-06-09T02:41:12.271Z,11.55
2017-06-09T02:42:22.214Z,11.49
2017-06-09T02:43:31.846Z,11.49
2017-06-09T02:44:42.104Z,11.45
2017-06-09T02:45:52.048Z,11.58
2017-06-09T02:47:02.305Z,11.53
2017-06-09T02:48:12.244Z,11.48
2017-06-09T02:49:22.191Z,11.53
2017-06-09T02:50:32.454Z,11.51
2017-06-09T02:51:42.397Z,11.51
2017-06-09T02:52:52.663Z,11.53
2017-06-09T02:54:02.921Z,11.51
2017-06-09T02:55:12.552Z,11.52
2017-06-09T02:56:22.185Z,11.48
2017-06-09T02:57:32.495Z,11.45
2017-06-09T02:58:42.445Z,11.51
2017-06-09T02:59:52.078Z,11.51
2017-06-09T03:01:02.024Z,11.44
2017-06-09T03:02:12.296Z,11.49
2017-06-09T03:03:22.551Z,11.48
2017-06-09T03:04:32.495Z,11.52
2017-06-09T03:05:45.573Z,11.49
2017-06-09T03:06:55.832Z,11.56
2017-06-09T03:08:06.091Z,11.48
2017-06-09T03:09:16.039Z,11.51
2017-06-09T03:10:25.982Z,11.52
2017-06-09T03:11:36.254Z,11.51
2017-06-09T03:12:46.506Z,11.55
2017-06-09T03:13:56.148Z,11.49
2017-06-09T03:15:06.095Z,11.52
2017-06-09T03:16:16.400Z,11.51
2017-06-09T03:17:26.665Z,11.53
2017-06-09T03:18:36.617Z,11.58
2017-06-09T03:19:46.561Z,11.52
2017-06-09T03:20:56.822Z,11.49
2017-06-09T03:22:06.777Z,11.51
2017-06-09T03:23:17.036Z,11.49
2017-06-09T03:24:27.303Z,11.63
2017-06-09T03:25:37.569Z,11.63
2017-06-09T03:26:47.829Z,11.65
2017-06-09T03:27:57.781Z,11.67
2017-06-09T03:29:08.046Z,11.71
2017-06-09T03:30:18.315Z,11.78
2017-06-09T03:31:28.574Z,11.78
2017-06-09T03:32:38.221Z,11.83
2017-06-09T03:33:48.482Z,11.86
2017-06-09T03:34:58.796Z,11.96
2017-06-09T03:36:09.060Z,11.86
2017-06-09T03:37:19.320Z,11.96
2017-06-09T03:38:29.580Z,11.99
2017-06-09T03:39:39.535Z,11.97
2017-06-09T03:40:49.806Z,12.12
2017-06-09T03:42:00.065Z,12.11
2017-06-09T03:43:10.323Z,12.25
2017-06-09T03:44:20.275Z,12.25
2017-06-09T03:45:30.226Z,12.28
2017-06-09T03:46:40.507Z,12.39
2017-06-09T03:47:50.770Z,12.33
2017-06-09T03:49:00.714Z,12.35
2017-06-09T03:50:10.352Z,12.43
2017-06-09T03:51:20.295Z,12.44
2017-06-09T03:52:30.562Z,12.51
2017-06-09T03:53:40.522Z,12.55
2017-06-09T03:54:50.785Z,12.57
2017-06-09T03:56:01.049Z,12.65
2017-06-09T03:57:11.004Z,12.65
2017-06-09T03:58:21.266Z,12.68
2017-06-09T03:59:31.531Z,12.63
2017-06-09T04:00:41.785Z,12.78
2017-06-09T04:01:52.043Z,12.68
2017-06-09T04:03:01.989Z,12.81
2017-06-09T04:04:11.623Z,12.81
2017-06-09T04:05:21.887Z,12.84
2017-06-09T04:06:32.147Z,12.86
2017-06-09T04:07:42.405Z,12.88
2017-06-09T04:08:52.356Z,12.91
2017-06-09T04:10:02.622Z,12.94
2017-06-09T04:11:12.888Z,13.05
2017-06-09T04:12:23.152Z,13.05
2017-06-09T04:13:33.411Z,13.12
2017-06-09T04:14:43.679Z,13.05
2017-06-09T04:15:53.937Z,13.06
2017-06-09T04:17:03.898Z,13.09
2017-06-09T04:18:14.163Z,13.06
2017-06-09T04:19:24.111Z,13.11
2017-06-09T04:20:34.378Z,13.09
2017-06-09T04:21:44.644Z,13.08
2017-06-09T04:22:54.630Z,13.06
2017-06-09T04:24:04.579Z,13.05
2017-06-09T04:25:14.843Z,12.99
2017-06-09T04:26:25.104Z,13.06
2017-06-09T04:27:35.362Z,13.09
2017-06-09T04:28:45.621Z,13.02
2017-06-09T04:29:55.566Z,13.05
2017-06-09T04:31:05.516Z,12.98
2017-06-09T04:32:15.501Z,13.01
2017-06-09T04:33:25.451Z,13.01
2017-06-09T04:34:35.710Z,12.98
2017-06-09T04:35:45.971Z,13.03
2017-06-09T04:36:56.229Z,12.93
2017-06-09T04:38:06.492Z,13.01
2017-06-09T04:39:16.757Z,12.99
2017-06-09T04:40:26.720Z,12.91
2017-06-09T04:41:36.671Z,12.93
2017-06-09T04:42:46.613Z,12.91
2017-06-09T04:43:56.868Z,12.87
2017-06-09T04:45:07.133Z,12.88
2017-06-09T04:46:17.081Z,12.9
2017-06-09T04:47:27.340Z,12.87
2017-06-09T04:48:36.974Z,12.78
2017-06-09T04:49:47.232Z,12.88
2017-06-09T04:50:57.498Z,12.76
2017-06-09T04:52:07.761Z,12.83
2017-06-09T04:53:17.712Z,12.68
2017-06-09T04:54:27.661Z,12.7
2017-06-09T04:55:37.920Z,12.63
2017-06-09T04:56:47.549Z,12.65
2017-06-09T04:57:57.893Z,12.61
2017-06-09T04:59:08.155Z,12.66
2017-06-09T05:00:17.473Z,12.58
2017-06-09T05:01:27.107Z,12.68
2017-06-09T05:02:37.097Z,12.63
2017-06-09T05:03:47.357Z,12.63
2017-06-09T05:04:57.616Z,12.61
2017-06-09T05:06:07.880Z,12.62
2017-06-09T05:07:17.518Z,12.61
2017-06-09T05:08:27.465Z,12.58
2017-06-09T05:09:37.418Z,12.51
2017-06-09T05:10:47.082Z,12.55
2017-06-09T05:11:57.340Z,12.57
2017-06-09T05:13:07.605Z,12.63
2017-06-09T05:14:17.864Z,12.62
2017-06-09T05:15:28.136Z,12.65
2017-06-09T05:16:38.088Z,12.61
2017-06-09T05:17:48.345Z,12.58
2017-06-09T05:18:58.297Z,12.63
2017-06-09T05:20:08.261Z,12.66
2017-06-09T05:21:18.516Z,12.68
2017-06-09T05:22:28.476Z,12.65
2017-06-09T05:23:38.739Z,12.63
2017-06-09T05:24:48.997Z,12.7
2017-06-09T05:25:58.938Z,12.81
2017-06-09T05:27:09.196Z,12.78
2017-06-09T05:28:19.142Z,12.76
2017-06-09T05:29:29.401Z,12.88
2017-06-09T05:30:39.661Z,12.9
2017-06-09T05:31:49.926Z,13.01
2017-06-09T05:32:59.570Z,12.98
2017-06-09T05:34:09.522Z,13.01
2017-06-09T05:35:19.792Z,13.08
2017-06-09T05:36:30.060Z,13.11
2017-06-09T05:37:40.320Z,13.09
2017-06-09T05:38:50.266Z,13.16
2017-06-09T05:40:00.530Z,13.19
2017-06-09T05:41:10.792Z,13.23
2017-06-09T05:42:21.055Z,13.28
2017-06-09T05:43:31.001Z,13.26
2017-06-09T05:44:40.947Z,13.24
2017-06-09T05:45:51.212Z,13.3
2017-06-09T05:47:01.164Z,13.3
2017-06-09T05:48:10.803Z,13.24
2017-06-09T05:49:20.437Z,13.36
2017-06-09T05:50:30.978Z,13.42
2017-06-09T05:51:41.248Z,13.39
2017-06-09T05:52:51.291Z,13.39
2017-06-09T05:54:01.550Z,13.24
2017-06-09T05:55:11.822Z,13.36
2017-06-09T05:56:21.772Z,13.31
2017-06-09T05:57:31.726Z,13.31
2017-06-09T05:58:41.996Z,13.28
2017-06-09T05:59:52.262Z,13.3
2017-06-09T06:01:02.525Z,13.28
2017-06-09T06:02:12.787Z,13.33
2017-06-09T06:03:22.747Z,13.27
2017-06-09T06:04:32.695Z,13.39
2017-06-09T06:05:42.959Z,13.36
2017-06-09T06:06:53.221Z,13.4
2017-06-09T06:08:03.181Z,13.37
2017-06-09T06:09:12.813Z,13.4
2017-06-09T06:10:22.764Z,13.52
2017-06-09T06:11:33.029Z,13.39
2017-06-09T06:12:43.307Z,13.46
2017-06-09T06:13:53.275Z,13.43
2017-06-09T06:15:03.536Z,13.49
2017-06-09T06:16:13.801Z,13.46
2017-06-09T06:17:24.061Z,13.3
2017-06-09T06:18:34.330Z,13.3
2017-06-09T06:19:44.594Z,13.46
2017-06-09T06:20:54.868Z,13.33
2017-06-09T06:22:05.129Z,13.43
2017-06-09T06:23:15.395Z,13.46
2017-06-09T06:24:25.656Z,13.5
2017-06-09T06:25:35.923Z,13.5
2017-06-09T06:26:45.877Z,13.5
2017-06-09T06:27:56.142Z,13.54
2017-06-09T06:29:06.403Z,13.62
2017-06-09T06:30:16.671Z,13.6
2017-06-09T06:31:26.305Z,13.6
2017-06-09T06:32:36.570Z,13.6
2017-06-09T06:33:46.842Z,13.65
2017-06-09T06:34:57.105Z,13.65
2017-06-09T06:36:07.397Z,13.64
2017-06-09T06:37:17.345Z,13.61
2017-06-09T06:38:27.293Z,13.6
2017-06-09T06:39:37.234Z,13.64
2017-06-09T06:40:47.497Z,13.68
2017-06-09T06:41:57.767Z,13.65
2017-06-09T06:43:07.716Z,13.67
2017-06-09T06:44:17.981Z,13.68
2017-06-09T06:45:28.251Z,13.78
2017-06-09T06:46:37.601Z,13.85
2017-06-09T06:47:47.873Z,13.8
2017-06-09T06:48:58.141Z,13.79
2017-06-09T06:50:07.781Z,13.8
2017-06-09T06:51:17.738Z,13.83
2017-06-09T06:52:28.012Z,13.79
2017-06-09T06:53:37.654Z,13.83
2017-06-09T06:54:47.912Z,13.76
2017-06-09T06:55:58.188Z,13.8
2017-06-09T06:57:08.137Z,13.86
2017-06-09T06:58:18.081Z,13.83
2017-06-09T06:59:28.029Z,13.83
2017-06-09T07:00:37.664Z,13.83
2017-06-09T07:01:47.611Z,13.89
2017-06-09T07:02:57.867Z,13.94
2017-06-09T07:04:08.135Z,13.98
2017-06-09T07:05:18.087Z,13.97
2017-06-09T07:06:28.044Z,13.95
2017-06-09T07:07:37.687Z,14.03
2017-06-09T07:08:47.636Z,14.01
2017-06-09T07:09:57.581Z,14.05
2017-06-09T07:11:07.540Z,14.05
2017-06-09T07:12:17.495Z,14.07
2017-06-09T07:13:27.760Z,14.07
2017-06-09T07:14:37.714Z,14.12
2017-06-09T07:15:47.971Z,14.11
2017-06-09T07:16:58.225Z,13.93
2017-06-09T07:18:08.483Z,13.91
2017-06-09T07:19:18.742Z,13.79
2017-06-09T07:20:29.007Z,13.82
2017-06-09T07:21:38.954Z,13.82
2017-06-09T07:22:49.216Z,13.62
2017-06-09T07:23:59.163Z,13.67
2017-06-09T07:25:09.111Z,13.5
2017-06-09T07:26:18.432Z,13.57
2017-06-09T07:27:28.695Z,13.57
2017-06-09T07:28:38.646Z,13.52
2017-06-09T07:29:48.924Z,13.52
2017-06-09T07:30:59.191Z,13.43
2017-06-09T07:32:09.461Z,13.54
2017-06-09T07:33:19.722Z,13.5
2017-06-09T07:34:29.668Z,13.65
2017-06-09T07:35:39.617Z,13.52
2017-06-09T07:36:49.902Z,13.68
2017-06-09T07:38:00.167Z,13.68
2017-06-09T07:39:10.118Z,13.7
2017-06-09T07:40:20.384Z,13.67
2017-06-09T07:41:30.647Z,13.78
2017-06-09T07:42:40.910Z,13.75
2017-06-09T07:43:51.171Z,13.78
2017-06-09T07:45:01.430Z,13.87
2017-06-09T07:46:11.693Z,13.8
2017-06-09T07:47:21.642Z,13.79
2017-06-09T07:48:31.906Z,13.86
2017-06-09T07:49:41.855Z,13.8
2017-06-09T07:50:52.154Z,13.86
2017-06-09T07:52:02.418Z,13.85
2017-06-09T07:53:12.056Z,13.89
2017-06-09T07:54:21.694Z,14.08
2017-06-09T07:55:31.959Z,14.08
2017-06-09T07:56:42.228Z,14.19
2017-06-09T07:57:52.497Z,14.26
2017-06-09T07:59:02.766Z,14.28
2017-06-09T08:00:13.068Z,14.3
2017-06-09T08:01:23.335Z,14.34
2017-06-09T08:02:32.974Z,14.25
2017-06-09T08:03:42.975Z,14.07
2017-06-09T08:04:52.606Z,14.13
2017-06-09T08:06:02.873Z,14.19
2017-06-09T08:07:13.142Z,14.05
2017-06-09T08:08:23.096Z,14.08
2017-06-09T08:09:33.361Z,14.12
2017-06-09T08:10:43.321Z,13.98
2017-06-09T08:11:53.587Z,13.94
2017-06-09T08:13:03.851Z,14.03
2017-06-09T08:14:14.114Z,13.85
2017-06-09T08:15:24.374Z,13.82
2017-06-09T08:16:34.634Z,13.83
2017-06-09T08:17:44.910Z,13.79
2017-06-09T08:18:55.175Z,13.85
2017-06-09T08:20:05.473Z,13.87
2017-06-09T08:21:15.748Z,13.86
2017-06-09T08:22:26.017Z,13.8
2017-06-09T08:23:35.968Z,13.95
2017-06-09T08:24:46.235Z,13.82
2017-06-09T08:25:56.501Z,13.93
2017-06-09T08:27:06.763Z,14.11
2017-06-09T08:28:16.716Z,14.12
2017-06-09T08:29:26.662Z,14.23
2017-06-09T08:30:36.632Z,14.26
2017-06-09T08:31:46.903Z,14.34
2017-06-09T08:32:57.167Z,14.4
2017-06-09T08:34:07.432Z,14.49
2017-06-09T08:35:17.701Z,14.48
2017-06-09T08:36:27.648Z,14.49
2017-06-09T08:37:37.918Z,14.61
2017-06-09T08:38:48.184Z,14.56
2017-06-09T08:39:58.149Z,14.66
2017-06-09T08:41:08.413Z,14.68
2017-06-09T08:42:18.680Z,14.59
2017-06-09T08:43:28.939Z,14.66
2017-06-09T08:44:38.892Z,14.66
2017-06-09T08:45:48.889Z,14.61
2017-06-09T08:46:58.843Z,14.81
2017-06-09T08:48:09.112Z,14.81
2017-06-09T08:49:19.376Z,14.87
2017-06-09T08:50:29.644Z,14.96
2017-06-09T08:51:39.906Z,15.08
2017-06-09T08:52:49.855Z,15.07
2017-06-09T08:54:00.115Z,15.08
2017-06-09T08:55:10.397Z,15.19
2017-06-09T08:56:20.661Z,15.19
2017-06-09T08:57:29.985Z,15.17
2017-06-09T08:58:40.247Z,15.14
2017-06-09T08:59:50.516Z,15.08
2017-06-09T09:01:00.785Z,14.96
2017-06-09T09:02:11.047Z,14.62
2017-06-09T09:03:20.997Z,14.68
2017-06-09T09:04:31.257Z,14.58
2017-06-09T09:05:40.899Z,14.61
2017-06-09T09:06:50.849Z,14.44
2017-06-09T09:08:01.112Z,14.31
2017-06-09T09:09:11.062Z,14.28
2017-06-09T09:10:21.014Z,14.16
2017-06-09T09:11:31.280Z,14.05
2017-06-09T09:12:41.539Z,14.11
2017-06-09T09:13:51.484Z,13.98
2017-06-09T09:15:01.751Z,13.95
2017-06-09T09:16:12.034Z,13.86
2017-06-09T09:17:21.987Z,13.85
2017-06-09T09:18:32.257Z,13.75
2017-06-09T09:19:42.208Z,13.67
2017-06-09T09:20:52.158Z,13.67
2017-06-09T09:22:02.420Z,13.6
2017-06-09T09:23:12.397Z,13.46
2017-06-09T09:24:22.350Z,13.3
2017-06-09T09:25:32.616Z,13.26
2017-06-09T09:26:42.881Z,13.28
2017-06-09T09:27:53.136Z,13.26
2017-06-09T09:29:03.394Z,13.24
2017-06-09T09:30:13.352Z,13.3
2017-06-09T09:31:23.618Z,13.27
2017-06-09T09:32:33.886Z,13.12
2017-06-09T09:33:43.833Z,13.11
2017-06-09T09:34:54.097Z,13.03
2017-06-09T09:36:04.368Z,13.08
2017-06-09T09:37:14.318Z,13.02
2017-06-09T09:38:24.576Z,13.01
2017-06-09T09:39:34.527Z,13.05
2017-06-09T09:40:44.797Z,13.08
2017-06-09T09:41:54.788Z,13.05
2017-06-09T09:43:04.738Z,13.06
2017-06-09T09:44:14.994Z,12.94
2017-06-09T09:45:25.251Z,12.94
2017-06-09T09:46:35.204Z,13.01
2017-06-09T09:47:44.910Z,12.93
2017-06-09T09:48:54.854Z,12.83
2017-06-09T09:50:05.120Z,12.84
2017-06-09T09:51:15.074Z,12.95
2017-06-09T09:52:25.338Z,12.87
2017-06-09T09:53:35.284Z,12.81
2017-06-09T09:54:45.555Z,12.81
2017-06-09T09:55:55.818Z,12.78
2017-06-09T09:57:05.773Z,12.66
2017-06-09T09:58:15.719Z,12.68
2017-06-09T09:59:25.354Z,12.76
2017-06-09T10:00:35.336Z,12.68
2017-06-09T10:01:44.971Z,12.63
2017-06-09T10:02:55.232Z,12.63
2017-06-09T10:04:05.493Z,12.66
2017-06-09T10:05:15.818Z,12.68
2017-06-09T10:06:25.763Z,12.65
2017-06-09T10:07:35.708Z,12.58
2017-06-09T10:08:46.007Z,12.66
2017-06-09T10:09:55.647Z,12.58
2017-06-09T10:11:05.911Z,12.66
2017-06-09T10:12:15.856Z,12.65
2017-06-09T10:13:26.118Z,12.68
2017-06-09T10:14:36.075Z,12.65
2017-06-09T10:15:46.337Z,12.68
2017-06-09T10:16:56.289Z,12.66
2017-06-09T10:18:06.236Z,12.61
2017-06-09T10:19:16.184Z,12.7
2017-06-09T10:20:25.816Z,12.63
2017-06-09T10:21:36.076Z,12.7
2017-06-09T10:22:46.345Z,12.63
2017-06-09T10:23:56.623Z,12.68
2017-06-09T10:25:06.885Z,12.66
2017-06-09T10:26:17.155Z,12.62
2017-06-09T10:27:27.419Z,12.66
2017-06-09T10:28:37.680Z,12.63
2017-06-09T10:29:47.948Z,12.62
2017-06-09T10:30:58.208Z,12.65
2017-06-09T10:32:08.477Z,12.66
2017-06-09T10:33:18.740Z,12.65
2017-06-09T10:34:28.374Z,12.63
2017-06-09T10:35:38.636Z,12.62
2017-06-09T10:36:48.897Z,12.61
2017-06-09T10:37:59.164Z,12.47
2017-06-09T10:39:09.428Z,12.5
2017-06-09T10:40:19.687Z,12.51
2017-06-09T10:41:29.328Z,12.47
2017-06-09T10:42:39.597Z,12.58
2017-06-09T10:43:49.858Z,12.45
2017-06-09T10:45:00.118Z,12.5
2017-06-09T10:46:10.066Z,12.47
2017-06-09T10:47:20.335Z,12.39
2017-06-09T10:48:30.635Z,12.5
2017-06-09T10:49:40.894Z,12.43
2017-06-09T10:50:51.160Z,12.43
2017-06-09T10:52:01.419Z,12.45
2017-06-09T10:53:11.690Z,12.47
2017-06-09T10:54:21.631Z,12.5
2017-06-09T10:55:31.581Z,12.55
2017-06-09T10:56:41.848Z,12.48
2017-06-09T10:57:52.114Z,12.58
2017-06-09T10:59:02.378Z,12.62
2017-06-09T11:00:12.639Z,12.68
2017-06-09T11:01:22.589Z,12.78
2017-06-09T11:02:31.920Z,12.81
2017-06-09T11:03:42.175Z,12.9
2017-06-09T11:04:52.659Z,13.01
2017-06-09T11:06:02.302Z,13.02
2017-06-09T11:07:12.571Z,13.12
2017-06-09T11:08:22.824Z,13.17
2017-06-09T11:09:32.772Z,13.28
2017-06-09T11:10:43.032Z,13.26
2017-06-09T11:11:53.298Z,13.37
2017-06-09T11:13:03.246Z,13.47
2017-06-09T11:14:13.546Z,13.52
2017-06-09T11:15:23.492Z,13.49
2017-06-09T11:16:33.766Z,13.6
2017-06-09T11:17:43.720Z,13.62
2017-06-09T11:18:53.669Z,13.68
2017-06-09T11:20:03.931Z,13.68
2017-06-09T11:21:13.885Z,13.65
2017-06-09T11:22:23.213Z,13.64
2017-06-09T11:23:33.163Z,13.61
2017-06-09T11:24:43.427Z,13.5
2017-06-09T11:25:53.691Z,13.61
2017-06-09T11:27:03.954Z,13.68
2017-06-09T11:28:13.918Z,13.58
2017-06-09T11:29:23.239Z,13.75
2017-06-09T11:30:33.510Z,13.65
2017-06-09T11:31:43.774Z,13.82
2017-06-09T11:32:53.720Z,14
2017-06-09T11:34:03.975Z,14.07
2017-06-09T11:35:13.921Z,14.33
2017-06-09T11:36:24.180Z,14.41
2017-06-09T11:37:34.454Z,14.67
2017-06-09T11:38:44.715Z,14.71
2017-06-09T11:39:54.976Z,14.78
2017-06-09T11:41:05.233Z,14.9
2017-06-09T11:42:15.500Z,14.97
2017-06-09T11:43:25.762Z,14.99
2017-06-09T11:44:36.029Z,14.99
2017-06-09T11:45:46.311Z,14.97
2017-06-09T11:46:55.946Z,14.99
2017-06-09T11:48:06.206Z,14.93
2017-06-09T11:49:16.471Z,14.97
2017-06-09T11:50:26.108Z,14.89
2017-06-09T11:51:36.372Z,14.81
2017-06-09T11:52:46.315Z,14.89
2017-06-09T11:53:56.262Z,14.85
2017-06-09T11:55:06.520Z,14.74
2017-06-09T11:56:16.775Z,14.82
2017-06-09T11:57:27.036Z,14.71
2017-06-09T11:58:37.294Z,14.74
2017-06-09T11:59:47.553Z,14.79
2017-06-09T12:00:57.822Z,14.7
2017-06-09T12:02:07.454Z,14.68
2017-06-09T12:03:17.709Z,14.71
2017-06-09T12:04:27.657Z,14.67
2017-06-09T12:05:37.915Z,14.59
2017-06-09T12:06:48.179Z,14.41
2017-06-09T12:07:58.445Z,14.36
2017-06-09T12:09:08.706Z,14.4
2017-06-09T12:10:18.655Z,14.41
2017-06-09T12:11:28.918Z,14.2
2017-06-09T12:12:38.553Z,14.22
2017-06-09T12:13:48.501Z,14.12
2017-06-09T12:14:58.450Z,14.15
2017-06-09T12:16:08.709Z,13.93
2017-06-09T12:17:18.032Z,13.98
2017-06-09T12:18:28.321Z,13.93
2017-06-09T12:19:38.590Z,14.01
2017-06-09T12:20:48.537Z,13.79
2017-06-09T12:21:58.481Z,13.93
2017-06-09T12:23:08.428Z,13.79
2017-06-09T12:24:18.367Z,13.76
2017-06-09T12:25:28.314Z,13.71
2017-06-09T12:26:38.581Z,13.78
2017-06-09T12:27:48.528Z,13.73
2017-06-09T12:28:58.469Z,13.79
2017-06-09T12:30:08.726Z,13.73
2017-06-09T12:31:18.676Z,13.73
2017-06-09T12:32:28.933Z,13.75
2017-06-09T12:33:39.184Z,13.7
2017-06-09T12:34:49.454Z,13.64
2017-06-09T12:35:59.716Z,13.58
2017-06-09T12:37:09.976Z,13.78
2017-06-09T12:38:20.238Z,13.78
2017-06-09T12:39:30.502Z,13.8
2017-06-09T12:40:40.763Z,13.82
2017-06-09T12:41:50.080Z,13.87
2017-06-09T12:43:00.344Z,13.89
2017-06-09T12:44:10.600Z,14.07
2017-06-09T12:45:20.551Z,14.07
2017-06-09T12:46:30.500Z,14.2
2017-06-09T12:47:40.761Z,14.31
2017-06-09T12:48:50.709Z,14.37
2017-06-09T12:50:00.345Z,14.33
2017-06-09T12:51:10.287Z,14.45
2017-06-09T12:52:19.918Z,14.51
2017-06-09T12:53:30.179Z,14.61
2017-06-09T12:54:40.440Z,14.68
2017-06-09T12:55:50.699Z,14.77
2017-06-09T12:57:00.961Z,14.87
2017-06-09T12:58:10.909Z,14.96
2017-06-09T12:59:20.867Z,15.08
2017-06-09T13:00:31.134Z,15.14
2017-06-09T13:01:41.398Z,15.27
2017-06-09T13:02:51.034Z,15.29
2017-06-09T13:04:00.981Z,15.29
2017-06-09T13:05:10.935Z,15.27
2017-06-09T13:06:20.883Z,15.32
2017-06-09T13:07:31.151Z,15.32
2017-06-09T13:08:41.418Z,15.3
2017-06-09T13:09:51.054Z,15.29
2017-06-09T13:11:01.323Z,15.32
2017-06-09T13:12:11.591Z,15.17
2017-06-09T13:13:21.847Z,15.23
2017-06-09T13:14:31.805Z,15.15
2017-06-09T13:15:42.068Z,14.97
2017-06-09T13:16:52.335Z,15.07
2017-06-09T13:18:02.601Z,14.97
2017-06-09T13:19:12.548Z,14.92
2017-06-09T13:20:22.808Z,14.97
2017-06-09T13:21:32.754Z,14.93
2017-06-09T13:22:43.031Z,14.96
2017-06-09T13:23:53.295Z,14.97
2017-06-09T13:25:03.564Z,14.94
2017-06-09T13:26:13.201Z,15
2017-06-09T13:27:23.463Z,15
2017-06-09T13:28:33.405Z,15.11
2017-06-09T13:29:43.677Z,15.19
2017-06-09T13:30:53.948Z,15.33
2017-06-09T13:32:04.211Z,15.36
2017-06-09T13:33:14.478Z,15.5
2017-06-09T13:34:24.419Z,15.51
2017-06-09T13:35:34.684Z,15.63
2017-06-09T13:36:44.633Z,15.7
2017-06-09T13:37:54.893Z,15.73
2017-06-09T13:39:05.156Z,15.8
2017-06-09T13:40:15.413Z,15.81
2017-06-09T13:41:25.678Z,15.99
2017-06-09T13:42:35.627Z,15.99
2017-06-09T13:43:45.586Z,16.1
2017-06-09T13:44:55.535Z,15.96
2017-06-09T13:46:05.507Z,16.06
2017-06-09T13:47:15.137Z,16.02
2017-06-09T13:48:25.087Z,15.91
2017-06-09T13:49:35.349Z,15.91
2017-06-09T13:50:45.611Z,15.83
2017-06-09T13:51:55.873Z,15.67
2017-06-09T13:53:05.813Z,15.5
2017-06-09T13:54:16.075Z,15.45
2017-06-09T13:55:26.340Z,15.29
2017-06-09T13:56:36.606Z,15.1
2017-06-09T13:57:46.878Z,15.07
2017-06-09T13:58:57.143Z,15.02
2017-06-09T14:00:07.098Z,14.97
2017-06-09T14:01:17.369Z,14.82
2017-06-09T14:02:27.641Z,14.81
2017-06-09T14:03:37.918Z,14.66
2017-06-09T14:04:48.184Z,14.56
2017-06-09T14:05:58.444Z,14.68
2017-06-09T14:07:08.705Z,14.66
2017-06-09T14:08:18.960Z,14.55
2017-06-09T14:09:29.220Z,14.58
2017-06-09T14:10:39.159Z,14.44
2017-06-09T14:11:49.425Z,14.38
2017-06-09T14:12:59.715Z,14.4
2017-06-09T14:14:09.663Z,14.37
2017-06-09T14:15:19.925Z,14.34
2017-06-09T14:16:29.869Z,14.34
2017-06-09T14:17:40.134Z,14.4
2017-06-09T14:18:49.765Z,14.33
2017-06-09T14:20:00.024Z,14.31
2017-06-09T14:21:09.340Z,14.37
2017-06-09T14:22:18.972Z,14.37
2017-06-09T14:23:29.238Z,14.53
2017-06-09T14:24:39.196Z,14.52
2017-06-09T14:25:49.465Z,14.58
2017-06-09T14:26:59.407Z,14.63
2017-06-09T14:28:09.668Z,14.53
2017-06-09T14:29:19.297Z,14.58
2017-06-09T14:30:29.244Z,14.62
2017-06-09T14:31:39.503Z,14.62
2017-06-09T14:32:49.141Z,14.73
2017-06-09T14:33:59.089Z,14.78
2017-06-09T14:35:09.036Z,14.81
2017-06-09T14:36:19.295Z,14.86
2017-06-09T14:37:29.569Z,14.93
2017-06-09T14:38:39.831Z,14.86
2017-06-09T14:39:49.775Z,14.89
2017-06-09T14:40:59.724Z,14.89
2017-06-09T14:42:09.694Z,14.82
2017-06-09T14:43:19.955Z,14.96
2017-06-09T14:44:29.596Z,15.11
2017-06-09T14:45:39.858Z,15.05
2017-06-09T14:46:49.801Z,15.1
2017-06-09T14:47:59.754Z,15.11
2017-06-09T14:49:09.699Z,15.19
2017-06-09T14:50:19.967Z,15.27
2017-06-09T14:51:30.236Z,15.3
2017-06-09T14:52:40.188Z,15.32
2017-06-09T14:53:50.446Z,15.36
2017-06-09T14:55:00.079Z,15.36
2017-06-09T14:56:10.024Z,15.5
2017-06-09T14:57:20.289Z,15.55
2017-06-09T14:58:30.240Z,15.59
2017-06-09T14:59:40.189Z,15.67
2017-06-09T15:00:50.133Z,15.81
2017-06-09T15:02:00.389Z,15.76
2017-06-09T15:03:10.333Z,15.87
2017-06-09T15:04:20.282Z,15.91
2017-06-09T15:05:30.545Z,15.94
2017-06-09T15:06:40.810Z,15.96